Time;durP1;ratioP1;P1;durP2;ratioP2;P2;SDS_P1;SDS_P2;PMS_P1;PMS_P2;Temp;Humidity;BMP_temperature;BMP_pressure;BME280_temperature;BME280_humidity;BME280_pressure;Samples;Min_cycle;Max_cycle;Signal;HPM_P1;HPM_P2
2023/10/19 00:00:44;;;;;;;43.75;27.92;;;11.60;99.90;;;;;;4927273;29;20036;-80
2023/10/19 00:03:11;;;;;;;54.53;28.25;;;11.60;99.90;;;;;;4925311;29;20044;-80
2023/10/19 00:05:37;;;;;;;45.78;26.67;;;11.70;99.90;;;;;;4919485;29;20028;-80
2023/10/19 00:08:14;;;;;;;34.45;23.65;;;11.70;99.90;;;;;;4917245;29;20515;-77
2023/10/19 00:10:45;;;;;;;49.13;26.92;;;11.70;99.90;;;;;;4923822;29;20387;-79
2023/10/19 00:13:12;;;;;;;42.47;25.77;;;11.80;99.90;;;;;;4926631;29;20134;-80
2023/10/19 00:15:49;;;;;;;45.88;24.88;;;11.80;99.90;;;;;;4920044;29;20024;-79
2023/10/19 00:23:21;;;;;;;35.90;23.05;;;12.00;99.90;;;;;;4928961;29;20031;-79
2023/10/19 00:25:54;;;;;;;46.97;24.38;;;12.00;99.90;;;;;;4920895;29;20028;-78
2023/10/19 00:28:22;;;;;;;38.05;24.30;;;12.00;99.90;;;;;;4921911;29;20035;-79
2023/10/19 00:30:51;;;;;;;40.30;23.98;;;12.10;99.90;;;;;;4900363;29;20180;-78
2023/10/19 00:33:21;;;;;;;46.90;25.73;;;12.10;99.90;;;;;;4906297;29;20040;-80
2023/10/19 00:36:00;;;;;;;45.92;25.58;;;12.10;99.90;;;;;;4925300;29;20510;-79
2023/10/19 00:41:24;;;;;;;34.75;22.15;;;12.20;99.90;;;;;;4920183;29;20029;-79
2023/10/19 00:43:49;;;;;;;43.20;21.42;;;12.20;99.90;;;;;;4916140;29;20091;-75
2023/10/19 00:49:06;;;;;;;35.67;21.75;;;12.00;99.90;;;;;;4922643;29;20032;-79
2023/10/19 00:54:15;;;;;;;25.98;17.98;;;11.90;99.90;;;;;;4917410;29;20039;-78
2023/10/19 00:56:58;;;;;;;29.85;19.38;;;11.70;99.90;;;;;;4922206;29;20047;-80
2023/10/19 00:59:30;;;;;;;29.98;19.20;;;11.70;99.90;;;;;;4905403;29;20028;-79
2023/10/19 01:04:42;;;;;;;33.22;20.55;;;11.80;99.90;;;;;;4920077;29;20051;-79
2023/10/19 01:07:15;;;;;;;30.65;18.00;;;11.80;99.90;;;;;;4907686;29;20031;-79
2023/10/19 01:09:44;;;;;;;31.88;18.58;;;11.70;99.90;;;;;;4905446;29;20033;-80
2023/10/19 01:15:07;;;;;;;29.55;17.90;;;11.60;99.90;;;;;;4920467;29;20067;-77
2023/10/19 01:17:38;;;;;;;29.55;17.80;;;11.50;99.90;;;;;;4916362;29;20027;-79
2023/10/19 01:20:18;;;;;;;27.00;17.83;;;11.50;99.90;;;;;;4923108;29;20321;-80
2023/10/19 01:28:48;;;;;;;27.05;17.90;;;11.60;99.90;;;;;;4921244;29;20040;-78
2023/10/19 01:33:55;;;;;;;27.35;17.90;;;11.40;99.90;;;;;;4926141;29;20032;-78
2023/10/19 01:38:49;;;;;;;26.85;17.92;;;11.50;99.90;;;;;;4918861;29;20035;-80
2023/10/19 01:41:18;;;;;;;31.27;18.45;;;11.40;99.90;;;;;;4917719;29;20361;-79
2023/10/19 01:43:46;;;;;;;27.33;17.83;;;11.50;99.90;;;;;;4914777;29;20043;-80
2023/10/19 01:46:21;;;;;;;27.95;18.15;;;11.60;99.90;;;;;;4920131;29;20417;-77
2023/10/19 01:48:50;;;;;;;28.08;18.05;;;11.70;99.90;;;;;;4907794;29;20095;-78
2023/10/19 01:51:16;;;;;;;25.85;17.08;;;11.70;99.90;;;;;;4918842;29;20150;-81
2023/10/19 01:53:44;;;;;;;28.08;18.58;;;11.80;99.90;;;;;;4918855;29;20027;-80
2023/10/19 01:56:14;;;;;;;26.42;18.20;;;11.80;99.90;;;;;;4915968;29;20016;-79
2023/10/19 01:58:42;;;;;;;23.15;17.08;;;11.90;99.90;;;;;;4921821;29;20024;-77
2023/10/19 02:03:42;;;;;;;31.30;20.10;;;12.00;99.90;;;;;;4915084;29;20035;-78
2023/10/19 02:06:26;;;;;;;30.17;20.92;;;11.90;99.90;;;;;;4917808;29;20030;-80
2023/10/19 02:11:46;;;;;;;31.02;22.10;;;11.90;99.90;;;;;;4935437;29;20023;-80
2023/10/19 02:14:15;;;;;;;30.25;21.88;;;11.70;99.90;;;;;;4917911;29;20563;-80
2023/10/19 02:16:47;;;;;;;33.25;23.50;;;11.60;99.90;;;;;;4935577;29;20083;-81
2023/10/19 02:19:13;;;;;;;39.40;24.77;;;11.60;99.90;;;;;;4935492;29;20031;-78
2023/10/19 02:21:40;;;;;;;42.17;24.65;;;11.60;99.90;;;;;;4933552;29;20098;-77
2023/10/19 02:24:09;;;;;;;38.65;25.45;;;11.60;99.90;;;;;;4917090;29;20130;-81
2023/10/19 02:26:37;;;;;;;32.85;24.00;;;11.50;99.90;;;;;;4934872;29;20043;-80
2023/10/19 02:29:07;;;;;;;37.50;25.73;;;11.40;99.90;;;;;;4935388;29;20110;-79
2023/10/19 02:31:40;;;;;;;38.17;24.40;;;11.30;99.90;;;;;;4935061;29;20027;-79
2023/10/19 02:34:09;;;;;;;38.90;23.98;;;11.20;99.90;;;;;;4938843;29;20082;-79
2023/10/19 02:36:37;;;;;;;35.50;23.73;;;11.10;99.90;;;;;;4917944;29;20107;-79
2023/10/19 02:39:07;;;;;;;41.05;25.17;;;11.10;99.90;;;;;;4934775;29;20535;-80
2023/10/19 02:41:37;;;;;;;34.78;25.33;;;11.10;99.90;;;;;;4917770;29;20028;-77
2023/10/19 02:44:19;;;;;;;34.90;25.13;;;11.20;99.90;;;;;;4917831;29;20048;-79
2023/10/19 02:46:46;;;;;;;36.65;25.40;;;11.30;99.90;;;;;;4917895;29;20035;-80
2023/10/19 02:49:14;;;;;;;36.97;24.83;;;11.40;99.90;;;;;;4933386;29;20023;-79
2023/10/19 02:51:45;;;;;;;37.53;25.85;;;11.30;99.90;;;;;;4917745;29;20491;-78
2023/10/19 02:54:24;;;;;;;32.72;23.52;;;11.30;99.90;;;;;;4934448;29;20039;-79
2023/10/19 02:56:56;;;;;;;38.53;24.20;;;11.30;99.90;;;;;;4934659;29;20031;-78
2023/10/19 02:59:24;;;;;;;35.35;23.08;;;11.20;99.90;;;;;;4918036;29;20388;-78
2023/10/19 03:02:01;;;;;;;31.88;22.67;;;11.30;99.90;;;;;;4917413;29;20484;-79
2023/10/19 03:04:28;;;;;;;30.30;22.45;;;11.40;99.90;;;;;;4935003;29;20428;-80
2023/10/19 03:06:57;;;;;;;31.88;22.88;;;11.40;99.90;;;;;;4934781;29;20055;-78
2023/10/19 03:09:28;;;;;;;38.17;24.40;;;11.20;99.90;;;;;;4939578;29;20039;-77
2023/10/19 03:12:13;;;;;;;35.50;23.60;;;11.20;99.90;;;;;;4931375;29;20024;-81
2023/10/19 03:14:41;;;;;;;32.60;22.00;;;11.20;99.90;;;;;;4917395;29;20139;-80
2023/10/19 03:17:09;;;;;;;33.17;22.33;;;11.20;99.90;;;;;;4914812;29;20035;-76
2023/10/19 03:19:34;;;;;;;33.17;22.48;;;11.20;99.90;;;;;;4933660;29;20040;-79
2023/10/19 03:22:00;;;;;;;34.55;24.35;;;11.10;99.90;;;;;;4934645;29;20111;-78
2023/10/19 03:24:35;;;;;;;34.45;23.75;;;11.10;99.90;;;;;;4934371;29;20032;-77
2023/10/19 03:27:16;;;;;;;32.83;23.17;;;11.10;99.90;;;;;;4917207;29;20065;-78
2023/10/19 03:29:54;;;;;;;32.40;21.48;;;11.10;99.90;;;;;;4898622;29;20096;-80
2023/10/19 03:32:28;;;;;;;33.22;21.58;;;11.10;99.90;;;;;;4905477;29;20077;-77
2023/10/19 03:34:55;;;;;;;36.17;23.58;;;11.20;99.90;;;;;;4934846;29;20445;-80
2023/10/19 03:37:29;;;;;;;31.65;21.75;;;11.20;99.90;;;;;;4920686;29;20046;-80
2023/10/19 03:39:58;;;;;;;35.47;23.73;;;11.10;99.90;;;;;;4921618;29;20054;-81
2023/10/19 03:42:32;;;;;;;33.03;22.33;;;11.10;99.90;;;;;;4936687;29;20028;-78
2023/10/19 03:44:59;;;;;;;33.00;22.27;;;11.00;99.90;;;;;;4938419;29;20035;-81
2023/10/19 03:47:27;;;;;;;35.50;23.23;;;11.10;99.90;;;;;;4920917;29;20046;-80
2023/10/19 03:49:53;;;;;;;34.65;21.90;;;11.10;99.90;;;;;;4937981;29;20038;-80
2023/10/19 03:54:46;;;;;;;29.63;20.42;;;11.20;99.90;;;;;;4937974;29;20050;-79
2023/10/19 03:57:19;;;;;;;33.15;20.73;;;11.20;99.90;;;;;;4908441;29;20043;-76
2023/10/19 03:59:46;;;;;;;29.52;19.85;;;11.30;99.90;;;;;;4939076;29;20046;-76
2023/10/19 04:02:13;;;;;;;30.20;20.50;;;11.30;99.90;;;;;;4939931;29;20491;-76
2023/10/19 04:04:47;;;;;;;29.13;20.00;;;11.30;99.90;;;;;;4937605;29;20032;-75
2023/10/19 04:12:50;;;;;;;33.50;21.98;;;11.40;99.90;;;;;;4875694;29;20485;-75
2023/10/19 04:15:16;;;;;;;34.22;20.50;;;11.50;99.90;;;;;;4878257;29;20048;-78
2023/10/19 04:17:46;;;;;;;33.45;21.65;;;11.50;99.90;;;;;;4883490;29;20549;-76
2023/10/19 04:22:50;;;;;;;31.42;20.10;;;11.50;99.90;;;;;;4879114;29;20112;-76
2023/10/19 04:25:18;;;;;;;32.97;21.40;;;11.50;99.90;;;;;;4878539;29;20149;-77
2023/10/19 04:27:45;;;;;;;32.75;20.58;;;11.60;99.90;;;;;;4878882;29;20041;-80
2023/10/19 04:30:27;;;;;;;30.85;20.50;;;11.60;99.90;;;;;;4878552;29;20045;-79
2023/10/19 04:32:55;;;;;;;50.30;34.47;;;11.60;99.90;;;;;;4878521;29;20116;-78
2023/10/19 04:35:21;;;;;;;32.28;20.95;;;11.70;99.90;;;;;;4890896;29;20064;-79
2023/10/19 04:37:56;;;;;;;32.17;19.13;;;11.70;99.90;;;;;;4878333;29;20053;-76
2023/10/19 04:40:23;;;;;;;33.72;19.63;;;11.70;99.90;;;;;;4878592;29;20077;-76
2023/10/19 04:42:54;;;;;;;32.03;21.42;;;11.70;99.90;;;;;;4887388;29;20075;-79
2023/10/19 04:45:20;;;;;;;33.28;19.90;;;11.70;99.90;;;;;;4936988;29;20036;-79
2023/10/19 04:47:49;;;;;;;35.78;20.85;;;11.70;99.90;;;;;;4936018;29;20047;-80
2023/10/19 04:50:16;;;;;;;34.67;20.83;;;11.70;99.90;;;;;;4936954;29;20031;-81
2023/10/19 04:52:41;;;;;;;44.05;24.45;;;11.80;99.90;;;;;;4936896;29;20503;-76
2023/10/19 04:55:08;;;;;;;40.42;24.38;;;11.90;99.90;;;;;;4934857;29;20040;-79
2023/10/19 04:57:33;;;;;;;34.42;20.45;;;12.00;99.90;;;;;;4919166;29;20036;-79
2023/10/19 05:00:00;;;;;;;41.50;26.48;;;12.00;99.90;;;;;;4927028;29;20030;-80
2023/10/19 05:02:25;;;;;;;43.60;34.40;;;12.10;99.90;;;;;;4933590;29;20032;-79
2023/10/19 05:04:51;;;;;;;46.78;37.00;;;12.10;99.90;;;;;;4934957;29;20039;-79
2023/10/19 05:07:17;;;;;;;39.63;29.40;;;12.10;99.90;;;;;;4915394;29;20375;-81
2023/10/19 05:09:44;;;;;;;38.30;26.65;;;12.20;99.90;;;;;;4936083;29;20396;-76
2023/10/19 05:12:11;;;;;;;37.03;25.02;;;12.20;99.90;;;;;;4923590;29;20043;-80
2023/10/19 05:14:41;;;;;;;32.08;20.98;;;12.30;99.90;;;;;;4930590;29;20041;-81
2023/10/19 05:17:12;;;;;;;38.95;22.25;;;12.30;99.90;;;;;;4934990;29;20499;-77
2023/10/19 05:19:39;;;;;;;39.10;23.67;;;12.30;99.90;;;;;;4918908;29;20448;-80
2023/10/19 05:22:06;;;;;;;41.38;23.70;;;12.30;99.90;;;;;;4935730;29;20028;-80
2023/10/19 05:24:32;;;;;;;26.65;17.67;;;12.30;99.90;;;;;;4932691;29;20033;-77
2023/10/19 05:26:58;;;;;;;42.65;22.10;;;12.30;99.90;;;;;;4928962;29;20548;-81
2023/10/19 05:29:24;;;;;;;36.88;20.75;;;12.30;99.90;;;;;;4924863;29;20056;-84
2023/10/19 05:31:53;;;;;;;27.77;18.75;;;12.40;99.90;;;;;;4924444;29;20387;-79
2023/10/19 05:34:23;;;;;;;42.28;20.13;;;12.40;99.90;;;;;;4917516;29;20391;-80
2023/10/19 05:36:49;;;;;;;53.13;27.08;;;12.40;99.90;;;;;;4935651;29;20028;-80
2023/10/19 05:39:16;;;;;;;44.95;26.33;;;12.50;99.90;;;;;;4931001;29;20063;-81
2023/10/19 05:41:42;;;;;;;75.95;31.20;;;12.50;99.90;;;;;;4926470;29;20026;-81
2023/10/19 05:44:08;;;;;;;56.63;28.48;;;12.50;99.90;;;;;;4935580;29;20567;-77
2023/10/19 05:46:34;;;;;;;43.42;22.23;;;12.60;99.90;;;;;;4918707;29;20042;-79
2023/10/19 05:49:03;;;;;;;34.35;21.40;;;12.60;99.90;;;;;;4929883;29;20044;-83
2023/10/19 05:51:30;;;;;;;46.20;21.67;;;12.60;99.90;;;;;;4937320;29;20035;-80
2023/10/19 05:54:01;;;;;;;36.15;21.75;;;12.60;99.90;;;;;;4933876;29;20031;-78
2023/10/19 05:56:30;;;;;;;38.50;19.73;;;12.60;99.90;;;;;;4935294;29;20040;-80
2023/10/19 05:58:57;;;;;;;36.22;21.05;;;12.60;99.90;;;;;;4933964;29;20110;-82
2023/10/19 06:01:23;;;;;;;32.13;20.33;;;12.70;99.90;;;;;;4924185;29;20060;-80
2023/10/19 06:03:50;;;;;;;40.33;19.35;;;12.70;99.90;;;;;;4929970;29;20396;-81
2023/10/19 06:06:16;;;;;;;32.63;21.33;;;12.80;99.90;;;;;;4934142;29;20028;-79
2023/10/19 06:08:42;;;;;;;31.13;18.98;;;12.70;99.90;;;;;;4934335;29;20618;-80
2023/10/19 06:11:08;;;;;;;29.48;17.88;;;12.80;99.90;;;;;;4935722;29;20078;-81
2023/10/19 06:13:34;;;;;;;28.85;17.52;;;12.80;99.90;;;;;;4935067;29;20039;-79
2023/10/19 06:16:00;;;;;;;24.92;16.42;;;12.80;99.90;;;;;;4935686;29;20107;-80
2023/10/19 06:18:25;;;;;;;24.17;14.80;;;12.80;99.90;;;;;;4935108;29;20028;-78
2023/10/19 06:20:54;;;;;;;26.48;14.48;;;12.80;99.90;;;;;;4935563;29;20024;-80
2023/10/19 06:23:20;;;;;;;22.00;13.52;;;12.90;99.90;;;;;;4935070;29;20432;-78
2023/10/19 06:25:46;;;;;;;21.33;12.68;;;13.00;99.90;;;;;;4904184;29;20055;-80
2023/10/19 06:28:12;;;;;;;22.80;13.05;;;13.00;99.90;;;;;;4936715;29;20040;-78
2023/10/19 06:30:40;;;;;;;19.52;11.38;;;13.10;99.90;;;;;;4914283;29;20455;-78
2023/10/19 06:33:06;;;;;;;25.15;13.20;;;13.20;99.90;;;;;;4937709;29;20019;-81
2023/10/19 06:35:33;;;;;;;21.02;13.15;;;13.30;99.90;;;;;;4929319;29;20032;-81
2023/10/19 06:38:00;;;;;;;25.52;12.95;;;13.50;99.90;;;;;;4925998;29;20044;-82
2023/10/19 06:40:27;;;;;;;22.20;14.95;;;13.70;99.90;;;;;;4938467;29;20031;-82
2023/10/19 06:42:56;;;;;;;22.85;16.40;;;13.90;99.90;;;;;;4933093;29;20020;-78
2023/10/19 06:45:22;;;;;;;25.13;16.13;;;14.00;99.90;;;;;;4931670;29;20579;-82
2023/10/19 06:47:49;;;;;;;30.70;18.20;;;14.10;99.90;;;;;;4935147;29;20035;-79
2023/10/19 06:50:21;;;;;;;29.48;16.67;;;14.00;99.90;;;;;;4930026;29;20363;-80
2023/10/19 06:52:47;;;;;;;35.40;18.17;;;14.00;99.90;;;;;;4935775;29;20114;-78
2023/10/19 06:55:16;;;;;;;28.10;15.05;;;14.00;99.90;;;;;;4929758;29;20019;-78
2023/10/19 06:57:48;;;;;;;20.80;13.38;;;13.90;99.90;;;;;;4933031;29;20032;-79
2023/10/19 07:00:19;;;;;;;21.53;13.07;;;14.10;99.90;;;;;;4933351;29;20028;-80
2023/10/19 07:02:53;;;;;;;22.90;12.75;;;14.30;99.90;;;;;;4933162;29;20282;-79
2023/10/19 07:05:25;;;;;;;22.52;14.35;;;14.60;99.90;;;;;;4933027;29;20035;-79
2023/10/19 07:07:53;;;;;;;;;;;14.80;99.90;;;;;;4933540;29;20040;-80
2023/10/19 07:10:19;;;;;;;21.30;14.07;;;15.00;99.90;;;;;;4933133;29;19907;-80
2023/10/19 07:12:50;;;;;;;27.27;16.42;;;15.20;99.90;;;;;;4938505;29;20047;-78
2023/10/19 07:15:19;;;;;;;25.65;13.38;;;15.40;99.90;;;;;;4934394;29;20036;-79
2023/10/19 07:17:46;;;;;;;25.15;13.57;;;15.60;99.90;;;;;;4934887;29;20024;-78
2023/10/19 07:20:32;;;;;;;23.10;13.57;;;15.80;99.90;;;;;;4933828;29;20040;-77
2023/10/19 07:23:03;;;;;;;22.65;11.60;;;15.90;99.90;;;;;;4940783;29;20732;-80
2023/10/19 07:25:31;;;;;;;22.75;12.98;;;16.10;99.90;;;;;;4942500;29;20036;-77
2023/10/19 07:27:59;;;;;;;25.38;11.63;;;16.20;99.90;;;;;;4926215;29;20059;-77
2023/10/19 07:30:28;;;;;;;19.92;12.07;;;16.20;99.90;;;;;;4941794;29;20067;-79
2023/10/19 07:32:58;;;;;;;22.38;11.68;;;16.30;99.90;;;;;;4934268;29;20369;-78
2023/10/19 07:35:28;;;;;;;19.52;11.80;;;16.40;99.90;;;;;;4936651;29;20027;-77
2023/10/19 07:37:56;;;;;;;25.42;13.27;;;16.50;99.90;;;;;;4935560;29;20023;-77
2023/10/19 07:40:23;;;;;;;20.65;12.35;;;16.60;99.90;;;;;;4935529;29;20028;-78
2023/10/19 07:42:51;;;;;;;16.85;10.77;;;16.80;99.90;;;;;;4935066;29;20035;-77
2023/10/19 07:45:18;;;;;;;19.33;11.07;;;16.90;99.90;;;;;;4933209;29;20031;-77
2023/10/19 07:47:45;;;;;;;22.13;12.23;;;17.00;99.90;;;;;;4918136;29;20040;-79
2023/10/19 07:50:15;;;;;;;23.45;14.43;;;17.10;99.90;;;;;;4934945;29;20027;-78
2023/10/19 07:52:47;;;;;;;20.27;12.00;;;17.20;99.90;;;;;;4927120;29;20484;-79
2023/10/19 07:55:13;;;;;;;20.27;11.68;;;17.30;99.90;;;;;;4932130;29;20482;-78
2023/10/19 07:57:44;;;;;;;26.45;17.98;;;17.50;99.90;;;;;;4923753;29;20106;-78
2023/10/19 08:00:13;;;;;;;26.63;14.98;;;17.60;99.90;;;;;;4931444;29;20027;-79
2023/10/19 08:02:45;;;;;;;31.13;19.10;;;17.80;99.90;;;;;;4935059;29;20024;-79
2023/10/19 08:05:15;;;;;;;21.58;14.68;;;17.90;99.90;;;;;;4917479;29;20036;-80
2023/10/19 08:07:44;;;;;;;18.85;10.38;;;18.10;99.90;;;;;;4935198;29;20044;-78
2023/10/19 08:10:15;;;;;;;14.80;8.80;;;18.20;99.90;;;;;;4935098;29;20476;-77
2023/10/19 08:12:42;;;;;;;15.25;8.55;;;18.40;99.90;;;;;;4934744;29;20480;-79
2023/10/19 08:17:54;;;;;;;14.10;8.18;;;18.70;99.90;;;;;;4934416;29;20028;-79
2023/10/19 08:20:23;;;;;;;18.83;9.02;;;18.70;99.90;;;;;;4935014;29;20031;-78
2023/10/19 08:22:53;;;;;;;14.18;8.10;;;18.80;99.90;;;;;;4933743;29;20025;-79
2023/10/19 08:25:20;;;;;;;15.82;7.93;;;18.70;99.90;;;;;;4937974;29;20387;-78
2023/10/19 08:27:50;;;;;;;17.67;8.35;;;18.70;99.90;;;;;;4928826;29;20039;-76
2023/10/19 08:30:18;;;;;;;13.70;8.60;;;18.80;99.90;;;;;;4936625;29;20357;-77
2023/10/19 08:32:58;;;;;;;17.45;8.55;;;19.00;99.90;;;;;;4943736;29;20027;-76
2023/10/19 08:35:24;;;;;;;17.40;10.82;;;19.20;99.90;;;;;;4936582;29;20028;-78
2023/10/19 08:37:51;;;;;;;15.20;9.02;;;19.40;99.90;;;;;;4937392;29;20023;-77
2023/10/19 08:40:18;;;;;;;15.57;8.82;;;;;;;;;;4936320;29;20020;-75
2023/10/19 08:42:46;;;;;;;17.40;8.38;;;19.80;99.90;;;;;;4936773;29;20035;-76
2023/10/19 08:45:13;;;;;;;15.50;8.45;;;19.90;99.90;;;;;;4937757;29;20031;-77
2023/10/19 08:48:00;;;;;;;13.80;7.90;;;20.00;99.90;;;;;;4927926;29;20138;-77
2023/10/19 08:50:31;;;;;;;14.40;7.88;;;20.00;99.90;;;;;;4926827;29;20068;-77
2023/10/19 08:52:58;;;;;;;15.63;7.45;;;20.10;99.90;;;;;;4936196;29;20137;-76
2023/10/19 08:55:25;;;;;;;16.17;8.05;;;;;;;;;;4935686;29;20064;-76
2023/10/19 08:57:52;;;;;;;13.55;7.65;;;;;;;;;;4928377;29;20042;-76
2023/10/19 09:00:19;;;;;;;13.75;7.15;;;20.60;99.90;;;;;;4937222;29;20067;-76
2023/10/19 09:02:46;;;;;;;17.73;7.38;;;20.60;99.90;;;;;;4913679;29;20384;-80
2023/10/19 09:05:19;;;;;;;16.27;6.90;;;20.70;99.90;;;;;;4926436;29;20089;-79
2023/10/19 09:07:55;;;;;;;15.43;6.68;;;20.80;99.90;;;;;;4930809;29;20115;-77
2023/10/19 09:10:23;;;;;;;12.63;6.93;;;20.90;99.90;;;;;;4935140;29;20031;-79
2023/10/19 09:13:09;;;;;;;14.15;6.63;;;21.00;99.90;;;;;;4914477;29;20106;-79
2023/10/19 09:15:36;;;;;;;9.52;5.63;;;20.80;99.90;;;;;;4918812;29;20036;-76
2023/10/19 09:18:13;;;;;;;11.38;5.90;;;20.60;99.90;;;;;;4931870;29;20063;-79
2023/10/19 09:20:41;;;;;;;12.20;6.25;;;20.40;99.90;;;;;;4936877;29;20032;-80
2023/10/19 09:23:07;;;;;;;12.70;5.90;;;20.30;99.90;;;;;;4933106;29;20485;-79
2023/10/19 09:25:35;;;;;;;12.73;6.50;;;20.20;99.90;;;;;;4927504;29;20039;-79
2023/10/19 09:28:05;;;;;;;12.18;6.47;;;20.20;99.90;;;;;;4929827;29;20515;-79
2023/10/19 09:30:31;;;;;;;9.60;5.38;;;20.50;99.90;;;;;;4934506;29;20110;-79
2023/10/19 09:32:58;;;;;;;12.85;6.10;;;20.80;99.90;;;;;;4934224;29;20050;-80
2023/10/19 09:35:27;;;;;;;12.43;5.97;;;21.10;99.90;;;;;;4934231;29;20035;-78
2023/10/19 09:37:54;;;;;;;11.30;6.10;;;21.30;99.90;;;;;;4934311;29;20019;-79
2023/10/19 09:40:22;;;;;;;11.98;5.55;;;21.60;99.20;;;;;;4934641;29;20050;-80
2023/10/19 09:42:53;;;;;;;16.33;6.15;;;21.50;99.10;;;;;;4934175;29;20039;-79
2023/10/19 09:45:20;;;;;;;14.57;6.72;;;21.40;98.80;;;;;;4926207;29;20036;-79
2023/10/19 09:47:50;;;;;;;12.30;6.00;;;21.50;98.50;;;;;;4923354;29;20070;-78
2023/10/19 09:50:16;;;;;;;10.30;5.60;;;21.60;98.40;;;;;;4924295;29;20118;-79
2023/10/19 09:52:42;;;;;;;12.15;5.95;;;21.90;99.90;;;;;;4935992;29;20107;-77
2023/10/19 09:55:45;;;;;;;13.02;6.03;;;21.70;97.10;;;;;;4918807;29;20090;-79
2023/10/19 09:58:23;;;;;;;10.43;5.50;;;21.70;97.60;;;;;;4856081;29;20130;-78
2023/10/19 10:00:51;;;;;;;15.23;6.07;;;21.70;98.60;;;;;;4855968;29;20113;-80
2023/10/19 10:03:42;;;;;;;15.57;6.25;;;21.60;97.50;;;;;;4867917;29;20031;-78
2023/10/19 10:06:09;;;;;;;13.55;5.97;;;21.70;97.50;;;;;;4857897;29;20052;-79
2023/10/19 10:08:39;;;;;;;11.02;5.53;;;21.80;97.20;;;;;;4858262;29;20383;-79
2023/10/19 10:11:34;;;;;;;11.73;5.45;;;22.00;97.80;;;;;;4858513;29;20068;-78
2023/10/19 10:14:00;;;;;;;12.52;5.40;;;22.10;97.60;;;;;;4821385;29;20058;-80
2023/10/19 10:16:27;;;;;;;12.90;5.75;;;22.00;96.40;;;;;;4822574;29;20042;-79
2023/10/19 10:19:01;;;;;;;12.15;5.43;;;21.90;96.50;;;;;;4817529;29;20046;-78
2023/10/19 10:21:29;;;;;;;11.18;5.68;;;21.80;95.60;;;;;;4805208;29;20030;-78
2023/10/19 10:23:57;;;;;;;14.65;6.50;;;21.90;96.40;;;;;;4808189;29;20444;-78
2023/10/19 10:26:30;;;;;;;11.50;5.70;;;21.90;96.60;;;;;;4806089;29;20043;-79
2023/10/19 10:29:14;;;;;;;10.80;5.97;;;22.10;97.10;;;;;;4813457;29;20134;-79
2023/10/19 10:31:45;;;;;;;10.50;4.82;;;22.30;96.50;;;;;;4835973;29;20461;-79
2023/10/19 10:34:32;;;;;;;9.40;4.55;;;22.30;96.50;;;;;;4858218;29;20203;-82
2023/10/19 10:37:05;;;;;;;8.07;4.43;;;22.30;95.80;;;;;;4854249;29;20042;-79
2023/10/19 10:39:31;;;;;;;9.77;5.55;;;22.20;95.00;;;;;;4857782;29;20422;-79
2023/10/19 10:41:58;;;;;;;11.60;4.35;;;22.20;94.80;;;;;;4839576;29;20113;-79
2023/10/19 10:44:47;;;;;;;8.65;4.95;;;22.10;94.90;;;;;;4859000;29;20117;-80
2023/10/19 10:47:20;;;;;;;10.18;5.63;;;22.10;94.80;;;;;;4861397;29;20049;-78
2023/10/19 10:49:57;;;;;;;8.75;4.78;;;22.00;96.10;;;;;;4876810;29;20038;-77
2023/10/19 10:52:25;;;;;;;13.15;6.00;;;22.00;96.00;;;;;;4926434;29;20035;-78
2023/10/19 10:54:52;;;;;;;10.07;5.18;;;21.90;95.20;;;;;;4936962;29;20103;-80
2023/10/19 10:57:19;;;;;;;12.65;5.38;;;21.90;95.40;;;;;;4934792;29;20202;-78
2023/10/19 10:59:45;;;;;;;12.55;5.32;;;21.80;96.10;;;;;;4934705;29;20024;-78
2023/10/19 11:02:21;;;;;;;14.65;5.45;;;21.70;96.50;;;;;;4932801;29;20031;-80
2023/10/19 11:04:47;;;;;;;13.30;6.35;;;21.90;97.60;;;;;;4932666;29;20036;-78
2023/10/19 11:07:20;;;;;;;11.50;6.88;;;22.10;97.80;;;;;;4938827;29;20032;-78
2023/10/19 11:09:46;;;;;;;;;;;22.30;97.50;;;;;;4936393;29;20071;-77
2023/10/19 11:12:13;;;;;;;12.57;6.65;;;;;;;;;;4916768;29;19918;-78
2023/10/19 11:14:59;;;;;;;13.55;6.85;;;;;;;;;;4922212;29;20036;-79
2023/10/19 11:17:30;;;;;;;17.95;6.97;;;;;;;;;;4919813;29;20040;-79
2023/10/19 11:19:57;;;;;;;13.35;5.63;;;23.20;99.90;;;;;;4935167;29;20051;-78
2023/10/19 11:22:27;;;;;;;9.68;5.93;;;23.30;99.90;;;;;;4941191;29;20369;-79
2023/10/19 11:24:54;;;;;;;11.60;5.18;;;;;;;;;;4929374;29;20075;-79
2023/10/19 11:27:27;;;;;;;7.55;4.70;;;;;;;;;;4926378;29;20047;-80
2023/10/19 11:29:55;;;;;;;9.00;5.05;;;;;;;;;;4940923;29;20094;-78
2023/10/19 11:32:21;;;;;;;9.30;5.07;;;23.70;94.00;;;;;;4925134;29;20107;-81
2023/10/19 11:34:48;;;;;;;11.52;4.60;;;23.70;94.70;;;;;;4934236;29;20039;-79
2023/10/19 11:37:14;;;;;;;13.10;5.78;;;23.70;93.50;;;;;;4934611;29;20043;-78
2023/10/19 11:39:40;;;;;;;9.75;5.05;;;23.80;94.10;;;;;;4930605;29;20479;-78
2023/10/19 11:42:06;;;;;;;20.58;5.93;;;23.70;93.80;;;;;;4932851;29;20126;-79
2023/10/19 11:44:32;;;;;;;9.30;4.45;;;23.80;94.50;;;;;;4935156;29;20059;-79
2023/10/19 11:46:58;;;;;;;13.10;4.85;;;23.80;96.80;;;;;;4930582;29;20039;-78
2023/10/19 11:49:23;;;;;;;8.48;4.60;;;23.70;95.00;;;;;;4917430;29;20169;-79
2023/10/19 11:51:49;;;;;;;11.85;5.25;;;23.70;94.40;;;;;;4925182;28;20040;-79
2023/10/19 11:54:17;;;;;;;11.32;4.80;;;23.60;93.90;;;;;;4933466;29;20035;-79
2023/10/19 11:56:43;;;;;;;8.25;4.22;;;23.90;95.90;;;;;;4908833;29;20055;-78
2023/10/19 11:59:12;;;;;;;9.65;4.10;;;23.80;93.60;;;;;;4937351;29;20119;-79
2023/10/19 12:01:38;;;;;;;8.32;4.43;;;23.80;92.70;;;;;;4937300;29;20027;-77
2023/10/19 12:04:05;;;;;;;12.20;5.78;;;23.90;93.00;;;;;;4936328;29;20019;-78
2023/10/19 12:06:31;;;;;;;23.88;14.27;;;23.80;93.20;;;;;;4937431;29;20034;-77
2023/10/19 12:08:59;;;;;;;12.15;6.57;;;23.70;92.60;;;;;;4937719;29;20040;-79
2023/10/19 12:11:25;;;;;;;13.55;6.70;;;23.70;92.80;;;;;;4930653;29;20084;-77
2023/10/19 12:13:51;;;;;;;15.50;7.28;;;23.60;92.50;;;;;;4920389;29;20408;-77
2023/10/19 12:16:17;;;;;;;29.70;14.52;;;23.50;92.90;;;;;;4937771;29;20030;-79
2023/10/19 12:18:44;;;;;;;17.15;7.88;;;23.40;93.80;;;;;;4944061;29;20027;-78
2023/10/19 12:21:13;;;;;;;17.98;7.40;;;23.20;94.60;;;;;;4937607;29;20145;-80
2023/10/19 12:23:51;;;;;;;19.98;7.40;;;23.00;95.60;;;;;;4937241;29;20039;-80
2023/10/19 12:26:17;;;;;;;24.77;8.05;;;22.80;97.00;;;;;;4937446;29;20050;-80
2023/10/19 12:28:46;;;;;;;24.13;9.57;;;22.70;98.00;;;;;;4924826;29;20501;-78
2023/10/19 12:31:12;;;;;;;16.88;5.70;;;22.50;97.60;;;;;;4919533;29;20043;-79
2023/10/19 12:33:38;;;;;;;23.48;6.90;;;22.40;97.90;;;;;;4931268;29;20024;-78
2023/10/19 12:38:51;;;;;;;23.80;11.30;;;22.30;99.40;;;;;;4936615;29;20476;-77
2023/10/19 12:41:18;;;;;;;13.18;7.10;;;22.30;99.90;;;;;;4934330;29;20468;-76
2023/10/19 12:43:46;;;;;;;19.60;6.82;;;22.40;99.90;;;;;;4941129;29;20167;-77
2023/10/19 12:46:24;;;;;;;16.95;7.55;;;22.40;99.90;;;;;;4944412;29;20030;-76
2023/10/19 12:48:55;;;;;;;9.48;4.95;;;22.60;99.90;;;;;;4933339;29;20040;-76
2023/10/19 12:51:25;;;;;;;22.63;9.13;;;22.80;99.90;;;;;;4936722;29;20388;-77
2023/10/19 12:53:55;;;;;;;14.80;7.22;;;23.00;99.90;;;;;;4938756;29;20032;-77
2023/10/19 12:56:29;;;;;;;8.93;5.03;;;23.10;99.90;;;;;;4935681;29;20036;-77
2023/10/19 12:58:55;;;;;;;10.00;5.82;;;23.10;99.30;;;;;;4922502;29;20106;-77
2023/10/19 13:01:21;;;;;;;10.73;5.65;;;23.00;99.90;;;;;;4936792;29;20063;-78
2023/10/19 13:03:49;;;;;;;10.88;5.60;;;23.20;99.90;;;;;;4936892;29;20054;-78
2023/10/19 13:06:15;;;;;;;15.20;6.85;;;23.30;99.90;;;;;;4936699;29;20052;-77
2023/10/19 13:08:41;;;;;;;11.65;5.22;;;23.40;99.90;;;;;;4933183;29;20154;-78
2023/10/19 13:11:09;;;;;;;20.98;9.32;;;23.40;98.60;;;;;;4955057;29;20015;-78
2023/10/19 13:13:39;;;;;;;25.90;6.57;;;23.40;97.70;;;;;;4924368;29;20043;-78
2023/10/19 13:16:05;;;;;;;15.90;6.60;;;23.40;96.50;;;;;;4927242;29;20059;-77
2023/10/19 13:18:33;;;;;;;11.73;5.38;;;23.40;97.90;;;;;;4941548;29;20049;-77
2023/10/19 13:21:09;;;;;;;11.50;5.13;;;23.50;97.20;;;;;;4940685;29;20023;-77
2023/10/19 13:23:38;;;;;;;10.35;5.13;;;23.50;97.50;;;;;;4934924;29;20440;-77
2023/10/19 13:28:32;;;;;;;11.93;5.40;;;23.30;97.10;;;;;;4935784;29;20047;-78
2023/10/19 13:30:58;;;;;;;12.63;6.25;;;23.30;97.30;;;;;;4931342;29;20034;-78
2023/10/19 13:33:24;;;;;;;12.55;5.60;;;23.30;96.60;;;;;;4936237;29;20382;-78
2023/10/19 13:35:50;;;;;;;10.07;5.80;;;23.20;96.70;;;;;;4935606;29;20020;-76
2023/10/19 13:38:19;;;;;;;11.45;5.75;;;23.20;97.20;;;;;;4917086;29;20036;-77
2023/10/19 13:40:45;;;;;;;14.65;5.18;;;23.30;97.20;;;;;;4946100;29;20031;-78